Time;durP1;ratioP1;P1;durP2;ratioP2;P2;SDS_P1;SDS_P2;PMS_P1;PMS_P2;Temp;Humidity;BMP_temperature;BMP_pressure;BME280_temperature;BME280_humidity;BME280_pressure;Samples;Min_cycle;Max_cycle;Signal;HPM_P1;HPM_P2
2023/12/27 00:01:13;;;;;;;4.65;2.08;;;;;;;;;;5036085;28;20690;-71
2023/12/27 00:03:38;;;;;;;8.20;2.43;;;;;;;;;;5035334;28;20048;-71
2023/12/27 00:06:03;;;;;;;6.23;2.50;;;;;;;;;;5034816;28;20635;-71
2023/12/27 00:08:28;;;;;;;9.63;3.42;;;;;;;;;;5035843;28;20734;-71
2023/12/27 00:10:54;;;;;;;11.82;2.60;;;;;;;;;;5035210;28;20010;-71
2023/12/27 00:13:19;;;;;;;6.03;2.70;;;;;;;;;;5035811;28;20088;-71
2023/12/27 00:15:45;;;;;;;5.22;2.22;;;;;;;;;;5035624;28;20447;-71
2023/12/27 00:18:11;;;;;;;9.55;2.65;;;;;;;;;;5035211;28;20034;-71
2023/12/27 00:20:36;;;;;;;8.68;2.47;;;;;;;;;;5035632;28;20025;-71
2023/12/27 00:23:01;;;;;;;7.83;2.40;;;;;;;;;;5035066;28;20385;-70
2023/12/27 00:25:27;;;;;;;6.90;2.33;;;;;;;;;;5035318;28;20293;-71
2023/12/27 00:27:52;;;;;;;8.00;2.92;;;;;;;;;;5035738;28;20025;-71
2023/12/27 00:30:18;;;;;;;5.17;2.10;;;;;;;;;;5034289;28;20389;-71
2023/12/27 00:32:43;;;;;;;4.18;2.20;;;;;;;;;;5035386;28;20810;-71
2023/12/27 00:35:08;;;;;;;6.47;2.20;;;;;;;;;;5035205;28;20104;-71
2023/12/27 00:37:33;;;;;;;5.33;2.17;;;;;;;;;;5034853;28;20428;-71
2023/12/27 00:39:59;;;;;;;4.07;2.25;;;;;;;;;;5035374;28;20832;-71
2023/12/27 00:42:24;;;;;;;9.50;2.92;;;;;;;;;;5034802;28;20026;-71
2023/12/27 00:44:50;;;;;;;10.57;3.13;;;;;;;;;;5034259;28;20013;-71
2023/12/27 00:47:15;;;;;;;5.95;2.50;;;;;;;;;;5035026;28;20026;-71
2023/12/27 00:49:40;;;;;;;8.03;3.00;;;;;;;;;;5034889;28;20017;-71
2023/12/27 00:52:06;;;;;;;9.60;2.85;;;;;;;;;;5034354;28;20267;-71
2023/12/27 00:54:31;;;;;;;5.43;2.67;;;;;;;;;;5035386;28;20063;-71
2023/12/27 00:56:56;;;;;;;4.90;2.60;;;;;;;;;;5035330;28;20392;-71
2023/12/27 00:59:22;;;;;;;12.43;3.13;;;;;;;;;;5033294;28;20029;-71
2023/12/27 01:01:47;;;;;;;8.13;2.90;;;;;;;;;;5034451;28;20270;-70
2023/12/27 01:04:13;;;;;;;8.27;2.40;;;;;;;;;;5033777;28;20263;-71
2023/12/27 01:06:38;;;;;;;11.40;2.75;;;;;;;;;;5034569;28;20272;-71
2023/12/27 01:09:03;;;;;;;15.82;3.20;;;;;;;;;;5034382;28;20029;-71
2023/12/27 01:11:29;;;;;;;6.30;2.70;;;;;;;;;;5034432;28;20132;-71
2023/12/27 01:13:54;;;;;;;13.77;3.38;;;;;;;;;;5034174;28;20022;-71
2023/12/27 01:16:19;;;;;;;10.70;3.00;;;;;;;;;;5034271;28;20072;-70
2023/12/27 01:18:44;;;;;;;9.47;2.70;;;;;;;;;;5034164;28;20345;-71
2023/12/27 01:21:10;;;;;;;9.50;3.47;;;;;;;;;;5034581;28;20353;-71
2023/12/27 01:23:35;;;;;;;10.85;3.08;;;;;;;;;;5034312;28;20671;-70
2023/12/27 01:26:00;;;;;;;7.00;2.83;;;;;;;;;;5034379;28;20025;-71
2023/12/27 01:28:25;;;;;;;7.33;2.77;;;;;;;;;;5034119;28;20440;-71
2023/12/27 01:30:50;;;;;;;5.67;2.90;;;;;;;;;;5032665;28;20303;-71
2023/12/27 01:33:16;;;;;;;11.33;2.83;;;;;;;;;;5034151;28;20349;-72
2023/12/27 01:35:41;;;;;;;8.33;2.70;;;;;;;;;;5034510;28;20259;-71
2023/12/27 01:38:06;;;;;;;7.27;2.77;;;;;;;;;;5033715;28;20262;-71
2023/12/27 01:40:31;;;;;;;4.87;2.50;;;;;;;;;;5034227;28;20350;-71
2023/12/27 01:42:56;;;;;;;8.50;2.77;;;;;;;;;;5033844;28;20362;-71
2023/12/27 01:45:22;;;;;;;13.00;3.33;;;;;;;;;;5033275;28;20306;-71
2023/12/27 01:47:47;;;;;;;9.43;2.53;;;;;;;;;;5033299;28;20529;-71
2023/12/27 01:50:13;;;;;;;9.82;2.80;;;;;;;;;;5034276;28;20259;-71
2023/12/27 01:52:40;;;;;;;6.35;2.67;;;;;;;;;;5034227;28;20462;-71
2023/12/27 01:55:06;;;;;;;15.88;2.90;;;;;;;;;;5033181;28;20030;-71
2023/12/27 01:57:31;;;;;;;9.10;2.88;;;;;;;;;;5034157;28;20533;-71
2023/12/27 01:59:57;;;;;;;11.70;2.67;;;;;;;;;;5033348;28;20148;-71
2023/12/27 02:02:22;;;;;;;5.83;2.33;;;;;;;;;;5032880;28;20147;-71
2023/12/27 02:04:48;;;;;;;11.35;2.60;;;;;;;;;;5033738;28;20365;-71
2023/12/27 02:07:13;;;;;;;8.13;2.50;;;;;;;;;;5032617;28;20022;-71
2023/12/27 02:09:38;;;;;;;5.40;2.50;;;;;;;;;;5033339;28;20099;-71
2023/12/27 02:12:04;;;;;;;5.13;2.60;;;;;;;;;;5033777;28;20029;-71
2023/12/27 02:14:29;;;;;;;5.53;2.40;;;;;;;;;;5032678;28;20096;-71
2023/12/27 02:16:55;;;;;;;6.60;2.73;;;;;;;;;;5033154;28;20053;-71
2023/12/27 02:19:21;;;;;;;9.02;2.30;;;;;;;;;;5032870;28;20096;-71
2023/12/27 02:21:47;;;;;;;4.97;1.92;;;;;;;;;;5032680;28;20021;-71
2023/12/27 02:24:14;;;;;;;7.43;2.38;;;;;;;;;;5033716;28;20079;-71
2023/12/27 02:26:40;;;;;;;10.80;3.47;;;;;;;;;;5030945;28;20113;-70
2023/12/27 02:29:05;;;;;;;10.45;2.88;;;;;;;;;;5033235;28;20057;-71
2023/12/27 02:31:30;;;;;;;4.60;2.27;;;;;;;;;;5033164;28;20017;-71
2023/12/27 02:33:56;;;;;;;4.63;2.40;;;;;;;;;;5032773;28;20269;-71
2023/12/27 02:36:21;;;;;;;12.45;3.00;;;;;;;;;;5032975;28;20619;-65
2023/12/27 02:38:46;;;;;;;8.77;2.47;;;;;;;;;;5031403;28;20033;-65
2023/12/27 02:41:12;;;;;;;8.83;3.10;;;;;;;;;;5028661;28;20033;-65
2023/12/27 02:43:37;;;;;;;5.80;2.13;;;;;;;;;;5024285;28;20298;-65
2023/12/27 02:46:02;;;;;;;8.53;2.73;;;;;;;;;;5030218;28;20282;-65
2023/12/27 02:48:27;;;;;;;7.53;2.10;;;;;;;;;;5031853;28;20021;-64
2023/12/27 02:50:53;;;;;;;10.40;3.00;;;;;;;;;;5029811;28;20014;-65
2023/12/27 02:53:18;;;;;;;4.60;2.10;;;;;;;;;;5031920;28;20270;-65
2023/12/27 02:55:43;;;;;;;8.07;2.23;;;;;;;;;;5032285;28;20381;-65
2023/12/27 02:58:08;;;;;;;8.47;2.83;;;;;;;;;;5032349;28;20025;-65
2023/12/27 03:00:37;;;;;;;8.43;2.47;;;;;;;;;;5031425;28;20274;-65
2023/12/27 03:03:02;;;;;;;5.20;1.98;;;;;;;;;;5032587;28;20750;-65
2023/12/27 03:05:28;;;;;;;9.35;2.20;;;;;;;;;;5031628;28;20029;-65
2023/12/27 03:07:53;;;;;;;8.17;2.30;;;;;;;;;;5031548;28;20112;-65
2023/12/27 03:10:18;;;;;;;9.00;2.03;;;;;;;;;;5032198;28;20556;-65
2023/12/27 03:12:43;;;;;;;6.25;2.00;;;;;;;;;;5031838;28;20333;-65
2023/12/27 03:15:09;;;;;;;8.00;2.20;;;;;;;;;;5031825;28;20490;-64
2023/12/27 03:17:34;;;;;;;4.05;1.90;;;;;;;;;;5032189;28;20025;-64
2023/12/27 03:19:59;;;;;;;5.17;2.43;;;;;;;;;;5031320;28;20029;-64
2023/12/27 03:22:24;;;;;;;5.37;1.97;;;;;;;;;;5031792;28;20282;-64
2023/12/27 03:24:49;;;;;;;4.43;1.43;;;;;;;;;;5032163;28;20036;-64
2023/12/27 03:27:15;;;;;;;4.77;1.63;;;;;;;;;;5031465;28;20282;-65
2023/12/27 03:29:40;;;;;;;6.75;1.83;;;;;;;;;;5032032;28;20345;-64
2023/12/27 03:32:06;;;;;;;3.72;1.88;;;;;;;;;;5031879;28;20026;-64
2023/12/27 03:34:32;;;;;;;7.70;1.80;;;;;;;;;;5031683;28;20374;-64
2023/12/27 03:36:57;;;;;;;8.80;2.08;;;;;;;;;;5031827;28;20017;-65
2023/12/27 03:39:23;;;;;;;6.47;2.00;;;;;;;;;;5031744;28;20072;-65
2023/12/27 03:41:48;;;;;;;7.95;2.00;;;;;;;;;;5030096;28;21723;-65
2023/12/27 03:44:13;;;;;;;7.60;2.20;;;;;;;;;;5031854;28;20034;-64
2023/12/27 03:46:38;;;;;;;2.10;1.70;;;;;;;;;;5031255;28;20279;-65
2023/12/27 03:49:04;;;;;;;10.00;2.37;;;;;;;;;;5031772;28;20658;-65
2023/12/27 03:51:29;;;;;;;8.98;2.17;;;;;;;;;;5031703;28;20734;-65
2023/12/27 03:53:54;;;;;;;7.68;1.77;;;;;;;;;;5030744;28;20017;-65
2023/12/27 03:56:20;;;;;;;5.70;1.83;;;;;;;;;;5031790;28;20078;-65
2023/12/27 03:58:45;;;;;;;8.27;1.77;;;;;;;;;;5031696;28;20331;-65
2023/12/27 04:01:10;;;;;;;6.60;1.80;;;;;;;;;;5030951;28;20301;-65
2023/12/27 04:03:35;;;;;;;6.15;1.95;;;;;;;;;;5031686;28;20274;-65
2023/12/27 04:06:01;;;;;;;8.93;1.90;;;;;;;;;;5031697;28;20021;-64
2023/12/27 04:08:26;;;;;;;7.60;2.13;;;;;;;;;;5030753;28;20270;-65
2023/12/27 04:10:51;;;;;;;3.78;2.17;;;;;;;;;;5032050;28;20282;-65
2023/12/27 04:13:17;;;;;;;6.90;2.72;;;;;;;;;;5030288;28;20489;-66
2023/12/27 04:15:43;;;;;;;6.65;1.90;;;;;;;;;;5031326;28;20049;-65
2023/12/27 04:18:11;;;;;;;4.47;1.65;;;;;;;;;;5031816;28;20535;-65
2023/12/27 04:20:36;;;;;;;5.97;1.60;;;;;;;;;;5029780;28;20025;-65
2023/12/27 04:23:01;;;;;;;5.40;2.00;;;;;;;;;;5031451;28;20030;-65
2023/12/27 04:25:27;;;;;;;8.40;1.63;;;;;;;;;;5031612;28;20370;-65
2023/12/27 04:27:52;;;;;;;4.43;1.80;;;;;;;;;;5031020;28;20465;-66
2023/12/27 04:30:17;;;;;;;3.23;1.50;;;;;;;;;;5031046;28;20808;-64
2023/12/27 04:32:42;;;;;;;6.75;2.00;;;;;;;;;;5033195;28;20071;-65
2023/12/27 04:35:07;;;;;;;7.93;2.17;;;;;;;;;;5034526;28;20024;-65
2023/12/27 04:37:33;;;;;;;8.00;2.22;;;;;;;;;;5034960;28;20269;-65
2023/12/27 04:39:58;;;;;;;8.67;2.20;;;;;;;;;;5034107;28;20091;-64
2023/12/27 04:42:23;;;;;;;7.37;2.07;;;;;;;;;;5034886;28;20289;-65
2023/12/27 04:44:48;;;;;;;4.87;2.70;;;;;;;;;;5033516;28;20274;-65
2023/12/27 04:47:14;;;;;;;5.90;1.80;;;;;;;;;;5033454;28;20274;-65
2023/12/27 04:49:39;;;;;;;10.70;2.30;;;;;;;;;;5033947;28;20263;-65
2023/12/27 04:52:04;;;;;;;9.07;2.37;;;;;;;;;;5034583;28;20262;-64
2023/12/27 04:54:30;;;;;;;6.70;1.80;;;;;;;;;;5035080;28;20678;-64
2023/12/27 04:56:55;;;;;;;6.88;2.40;;;;;;;;;;5033881;28;20355;-71
2023/12/27 04:59:21;;;;;;;7.13;2.17;;;;;;;;;;5034690;28;20021;-71
2023/12/27 05:01:46;;;;;;;6.45;2.28;;;;;;;;;;5033689;28;20025;-71
2023/12/27 05:04:11;;;;;;;4.40;1.97;;;;;;;;;;5033093;28;20021;-71
2023/12/27 05:06:36;;;;;;;6.40;1.60;;;;;;;;;;5034433;28;20029;-71
2023/12/27 05:09:04;;;;;;;5.07;1.87;;;;;;;;;;5034588;28;20328;-71
2023/12/27 05:11:29;;;;;;;9.75;2.08;;;;;;;;;;5034565;28;20084;-71
2023/12/27 05:13:54;;;;;;;6.63;1.75;;;;;;;;;;5034253;28;20462;-71
2023/12/27 05:16:20;;;;;;;3.17;1.60;;;;;;;;;;5033563;28;20046;-71
2023/12/27 05:18:45;;;;;;;5.78;1.70;;;;;;;;;;5034530;28;20267;-71
2023/12/27 05:21:11;;;;;;;6.32;1.88;;;;;;;;;;5034206;28;20021;-71
2023/12/27 05:23:36;;;;;;;7.93;2.15;;;;;;;;;;5033292;28;20040;-71
2023/12/27 05:26:02;;;;;;;6.20;2.05;;;;;;;;;;5034164;28;20035;-71
2023/12/27 05:28:28;;;;;;;8.18;2.17;;;;;;;;;;5033719;28;20022;-71
2023/12/27 05:30:53;;;;;;;6.75;2.13;;;;;;;;;;5033444;28;20034;-71
2023/12/27 05:33:18;;;;;;;4.97;1.90;;;;;;;;;;5032555;28;20487;-71
2023/12/27 05:35:43;;;;;;;7.30;1.85;;;;;;;;;;5033867;28;20017;-71
2023/12/27 05:38:09;;;;;;;8.03;2.73;;;;;;;;;;5034126;28;20052;-71
2023/12/27 05:40:34;;;;;;;7.75;1.80;;;;;;;;;;5031665;28;20269;-70
2023/12/27 05:42:59;;;;;;;9.60;1.93;;;;;;;;;;5033082;28;21397;-70
2023/12/27 05:45:24;;;;;;;4.63;1.60;;;;;;;;;;5032691;28;20301;-70
2023/12/27 05:47:51;;;;;;;7.47;1.88;;;;;;;;;;5035123;28;20492;-70
2023/12/27 05:50:16;;;;;;;11.68;2.20;;;;;;;;;;5035139;28;20028;-71
2023/12/27 05:52:41;;;;;;;4.30;1.63;;;;;;;;;;5034944;28;20022;-71
2023/12/27 05:55:07;;;;;;;8.18;1.80;;;;;;;;;;5034934;28;20242;-71
2023/12/27 05:57:32;;;;;;;5.72;2.03;;;;;;;;;;5035132;28;20032;-71
2023/12/27 05:59:57;;;;;;;4.75;1.95;;;;;;;;;;5034771;28;20036;-71
2023/12/27 06:02:22;;;;;;;3.10;2.20;;;;;;;;;;5034846;28;20124;-70
2023/12/27 06:04:48;;;;;;;4.53;1.80;;;;;;;;;;5034876;28;20325;-71
2023/12/27 06:07:13;;;;;;;5.45;1.80;;;;;;;;;;5034772;28;20299;-71
2023/12/27 06:09:39;;;;;;;4.33;1.83;;;;;;;;;;5034674;28;20485;-71
2023/12/27 06:12:07;;;;;;;5.45;2.25;;;;;;;;;;5034621;28;20278;-71
2023/12/27 06:14:32;;;;;;;7.88;2.50;;;;;;;;;;5034549;28;20021;-71
2023/12/27 06:16:57;;;;;;;5.25;2.67;;;;;;;;;;5034542;28;20056;-70
2023/12/27 06:19:22;;;;;;;5.43;2.13;;;;;;;;;;5034570;28;20381;-70
2023/12/27 06:21:48;;;;;;;2.70;1.77;;;;;;;;;;5034717;28;20021;-71
2023/12/27 06:24:13;;;;;;;6.33;2.20;;;;;;;;;;5034398;28;20243;-71
2023/12/27 06:26:38;;;;;;;3.10;1.40;;;;;;;;;;5034294;28;20075;-71
2023/12/27 06:29:03;;;;;;;6.07;1.70;;;;;;;;;;5034512;28;20309;-71
2023/12/27 06:31:29;;;;;;;4.20;1.67;;;;;;;;;;5034267;28;20374;-71
2023/12/27 06:33:54;;;;;;;2.65;1.50;;;;;;;;;;5034470;28;20028;-70
2023/12/27 06:36:19;;;;;;;4.83;2.27;;;;;;;;;;5034411;28;20465;-70
2023/12/27 06:38:46;;;;;;;4.13;1.97;;;;;;;;;;5034269;28;20661;-71
2023/12/27 06:41:11;;;;;;;4.15;2.03;;;;;;;;;;5034073;28;20250;-71
2023/12/27 06:43:36;;;;;;;4.93;2.33;;;;;;;;;;5033985;28;20033;-71
2023/12/27 06:46:01;;;;;;;3.67;1.70;;;;;;;;;;5033977;28;20527;-71
2023/12/27 06:48:27;;;;;;;9.43;3.13;;;;;;;;;;5033980;28;20033;-71
2023/12/27 06:50:52;;;;;;;10.20;1.90;;;;;;;;;;5033907;28;20243;-70
2023/12/27 06:53:17;;;;;;;4.97;2.43;;;;;;;;;;5034108;28;20251;-71
2023/12/27 06:55:42;;;;;;;6.37;2.30;;;;;;;;;;5032946;28;20251;-71
2023/12/27 06:58:07;;;;;;;3.15;2.20;;;;;;;;;;5034001;28;20266;-71
2023/12/27 07:00:35;;;;;;;4.25;2.13;;;;;;;;;;5033750;28;20030;-71
2023/12/27 07:03:00;;;;;;;6.50;2.05;;;;;;;;;;5033728;28;20017;-71
2023/12/27 07:05:25;;;;;;;6.68;1.92;;;;;;;;;;5033598;28;20029;-71
2023/12/27 07:07:51;;;;;;;5.57;2.20;;;;;;;;;;5033567;28;20017;-70
2023/12/27 07:10:16;;;;;;;2.63;2.10;;;;;;;;;;5033898;28;20611;-71
2023/12/27 07:12:41;;;;;;;4.63;2.30;;;;;;;;;;5033542;28;20247;-71
2023/12/27 07:15:11;;;;;;;5.70;2.70;;;;;;;;;;5033441;28;20090;-65
2023/12/27 07:17:36;;;;;;;7.45;1.85;;;;;;;;;;5033747;28;20029;-65
2023/12/27 07:20:02;;;;;;;3.30;2.10;;;;;;;;;;5033721;28;20099;-64
2023/12/27 07:22:28;;;;;;;12.18;2.80;;;;;;;;;;5033646;28;20021;-64
2023/12/27 07:24:53;;;;;;;9.57;2.70;;;;;;;;;;5033499;28;20436;-65
2023/12/27 07:27:18;;;;;;;7.53;3.17;;;;;;;;;;5033401;28;20816;-65
2023/12/27 07:29:43;;;;;;;13.20;4.00;;;;;;;;;;5033330;28;20013;-65
2023/12/27 07:32:09;;;;;;;11.83;4.97;;;;;;;;;;5033311;28;20531;-64
2023/12/27 07:34:34;;;;;;;11.17;6.20;;;;;;;;;;5033315;28;20720;-64
2023/12/27 07:36:59;;;;;;;8.70;5.00;;;;;;;;;;5033207;28;20677;-65
2023/12/27 07:39:24;;;;;;;6.88;4.32;;;;;;;;;;5033212;28;20033;-64
2023/12/27 07:41:50;;;;;;;11.30;5.03;;;;;;;;;;5033265;28;20094;-64
2023/12/27 07:44:16;;;;;;;7.38;4.18;;;;;;;;;;5033207;28;20243;-64
2023/12/27 07:46:42;;;;;;;9.05;5.30;;;;;;;;;;5033064;28;20033;-64
2023/12/27 07:49:07;;;;;;;9.77;5.30;;;;;;;;;;5033180;28;20025;-64
2023/12/27 07:51:32;;;;;;;6.85;3.90;;;;;;;;;;5033172;28;20479;-64
2023/12/27 07:53:57;;;;;;;8.33;4.60;;;;;;;;;;5033085;28;20096;-64
2023/12/27 07:56:23;;;;;;;9.50;4.23;;;;;;;;;;5033173;28;20773;-64
2023/12/27 07:58:48;;;;;;;6.30;4.15;;;;;;;;;;5033041;28;20309;-64
2023/12/27 08:01:13;;;;;;;11.10;5.00;;;;;;;;;;5033065;28;20061;-64
2023/12/27 08:03:39;;;;;;;11.43;4.32;;;;;;;;;;5032942;28;20342;-65
2023/12/27 08:06:05;;;;;;;10.10;4.28;;;;;;;;;;5033179;28;20025;-65
2023/12/27 08:08:30;;;;;;;9.45;4.00;;;;;;;;;;5036335;28;20022;-65
2023/12/27 08:10:55;;;;;;;10.80;4.13;;;;;;;;;;5036913;28;20488;-64
2023/12/27 08:13:20;;;;;;;6.93;3.73;;;;;;;;;;5036805;28;20033;-65
2023/12/27 08:15:45;;;;;;;5.03;3.10;;;;;;;;;;5036746;28;20303;-65
2023/12/27 08:18:11;;;;;;;6.50;4.47;;;;;;;;;;5036761;28;20025;-65
2023/12/27 08:20:36;;;;;;;5.80;4.00;;;;;;;;;;5036721;28;20239;-64
2023/12/27 08:23:01;;;;;;;6.45;4.75;;;;;;;;;;5036726;28;20021;-65
2023/12/27 08:25:27;;;;;;;9.52;4.80;;;;;;;;;;5036701;28;20524;-65
2023/12/27 08:27:52;;;;;;;12.87;5.67;;;;;;;;;;5036592;28;20018;-64
2023/12/27 08:30:17;;;;;;;11.90;4.60;;;;;;;;;;5036595;28;20265;-64
2023/12/27 08:32:42;;;;;;;7.60;4.63;;;;;;;;;;5036788;28;20317;-65
2023/12/27 08:35:08;;;;;;;10.17;5.17;;;;;;;;;;5036486;28;20488;-65
2023/12/27 08:37:33;;;;;;;14.57;5.80;;;;;;;;;;5036650;28;20239;-64
2023/12/27 08:39:58;;;;;;;9.70;5.53;;;;;;;;;;5036375;28;20412;-64
2023/12/27 08:42:23;;;;;;;8.77;5.67;;;;;;;;;;5036335;28;20032;-64
2023/12/27 08:44:49;;;;;;;10.07;5.63;;;;;;;;;;5036557;28;20245;-65
2023/12/27 08:47:14;;;;;;;9.00;4.50;;;;;;;;;;5036734;28;20049;-64
2023/12/27 08:49:39;;;;;;;11.30;5.97;;;;;;;;;;5036196;28;20104;-64
2023/12/27 08:52:05;;;;;;;10.63;5.10;;;;;;;;;;5036125;28;20024;-64
2023/12/27 08:54:30;;;;;;;8.85;5.13;;;;;;;;;;5036114;28;20321;-64
2023/12/27 08:56:55;;;;;;;13.30;6.82;;;;;;;;;;5036090;28;20096;-64
2023/12/27 08:59:21;;;;;;;14.23;7.23;;;;;;;;;;5036062;28;20025;-65
2023/12/27 09:01:46;;;;;;;10.95;5.97;;;;;;;;;;5036017;28;20029;-64
2023/12/27 09:04:11;;;;;;;10.43;6.55;;;;;;;;;;5036179;28;20025;-64
2023/12/27 09:06:36;;;;;;;25.83;15.95;;;;;;;;;;5035789;28;20056;-64
2023/12/27 09:09:02;;;;;;;12.80;7.53;;;;;;;;;;5035827;28;20020;-64
2023/12/27 09:11:28;;;;;;;16.88;9.30;;;;;;;;;;5036015;28;20719;-64
2023/12/27 09:13:53;;;;;;;17.20;10.17;;;;;;;;;;5035936;28;20017;-64
2023/12/27 09:16:18;;;;;;;12.00;6.90;;;;;;;;;;5035555;28;20281;-64
2023/12/27 09:18:44;;;;;;;9.47;4.03;;;;;;;;;;5034667;28;20243;-65
2023/12/27 09:21:09;;;;;;;6.57;3.97;;;;;;;;;;5035559;28;20254;-64
2023/12/27 09:23:34;;;;;;;8.43;3.60;;;;;;;;;;5035569;28;20112;-64
2023/12/27 09:25:59;;;;;;;7.70;3.03;;;;;;;;;;5035448;28;20282;-64
2023/12/27 09:28:27;;;;;;;6.50;3.10;;;;;;;;;;5035496;28;20334;-64
2023/12/27 09:30:53;;;;;;;5.32;2.80;;;;;;;;;;5035447;28;20428;-64
2023/12/27 09:33:18;;;;;;;6.38;3.15;;;;;;;;;;5035417;28;20021;-64
2023/12/27 09:35:43;;;;;;;6.40;2.70;;;;;;;;;;5035734;28;20049;-70
2023/12/27 09:38:09;;;;;;;5.78;2.70;;;;;;;;;;5035283;28;20017;-70
2023/12/27 09:40:34;;;;;;;8.57;3.30;;;;;;;;;;5035548;28;20062;-70
2023/12/27 09:43:01;;;;;;;7.70;2.50;;;;;;;;;;5035174;28;20028;-70
2023/12/27 09:45:27;;;;;;;5.65;2.67;;;;;;;;;;5035194;28;20049;-70
2023/12/27 09:47:53;;;;;;;3.63;2.28;;;;;;;;;;5035081;28;20029;-70
2023/12/27 09:50:19;;;;;;;6.80;3.25;;;;;;;;;;5035354;28;20025;-70
2023/12/27 09:52:46;;;;;;;3.90;2.60;;;;;;;;;;5035151;28;20477;-70
2023/12/27 09:55:11;;;;;;;4.97;2.50;;;;;;;;;;5034976;28;20013;-70
2023/12/27 09:57:36;;;;;;;4.47;2.47;;;;;;;;;;5034968;28;20026;-70
2023/12/27 10:00:05;;;;;;;4.85;2.67;;;;;;;;;;5034857;28;20281;-70
2023/12/27 10:02:33;;;;;;;4.40;2.92;;;;;;;;;;5035069;28;20523;-70
2023/12/27 10:04:59;;;;;;;5.05;2.75;;;;;;;;;;5034796;28;20033;-69
2023/12/27 10:07:24;;;;;;;7.60;2.85;;;;;;;;;;5034948;28;20029;-69
2023/12/27 10:09:50;;;;;;;7.93;2.45;;;;;;;;;;5034711;28;20041;-69
2023/12/27 10:12:15;;;;;;;6.10;2.47;;;;;;;;;;5034674;28;20139;-71
2023/12/27 10:14:41;;;;;;;6.93;2.72;;;;;;;;;;5034375;28;20385;-70
2023/12/27 10:17:06;;;;;;;4.60;2.15;;;;;;;;;;5034825;28;20049;-70
2023/12/27 10:19:41;;;;;;;4.18;2.25;;;;;;;;;;5034766;28;20029;-70
2023/12/27 10:22:06;;;;;;;7.05;2.97;;;;;;;;;;5034705;28;20021;-72
2023/12/27 10:24:32;;;;;;;8.43;2.42;;;;;;;;;;5034380;28;20025;-70
2023/12/27 10:27:00;;;;;;;5.53;2.25;;;;;;;;;;5034321;28;20112;-70
2023/12/27 10:29:25;;;;;;;2.60;1.65;;;;;;;;;;5034253;28;20097;-70
2023/12/27 10:31:50;;;;;;;5.63;1.90;;;;;;;;;;5034265;28;20049;-70
2023/12/27 10:34:16;;;;;;;5.03;1.63;;;;;;;;;;5034508;28;20258;-70
2023/12/27 10:36:42;;;;;;;4.28;1.80;;;;;;;;;;5034404;28;20026;-70
2023/12/27 10:39:09;;;;;;;10.45;2.28;;;;;;;;;;5034354;28;20519;-70
2023/12/27 10:41:34;;;;;;;6.13;2.15;;;;;;;;;;5034347;28;20473;-70
2023/12/27 10:44:00;;;;;;;3.37;1.40;;;;;;;;;;5034029;28;20029;-70
2023/12/27 10:46:25;;;;;;;4.85;2.05;;;;;;;;;;5034019;28;20270;-70
2023/12/27 10:48:56;;;;;;;7.30;2.10;;;;;;;;;;5033946;28;20045;-70
2023/12/27 10:51:21;;;;;;;10.38;2.20;;;;;;;;;;5034177;28;20096;-70
2023/12/27 10:53:49;;;;;;;5.75;1.92;;;;;;;;;;5033963;28;20139;-70
2023/12/27 10:56:19;;;;;;;9.30;2.28;;;;;;;;;;5033843;28;20026;-70
2023/12/27 10:58:46;;;;;;;5.25;2.20;;;;;;;;;;5033792;28;20437;-70
2023/12/27 11:01:11;;;;;;;3.17;1.48;;;;;;;;;;5033729;28;20021;-70
2023/12/27 11:03:37;;;;;;;4.50;2.00;;;;;;;;;;5033738;28;20155;-70
2023/12/27 11:06:04;;;;;;;6.47;1.83;;;;;;;;;;5033829;28;20367;-70
2023/12/27 11:08:32;;;;;;;5.20;1.85;;;;;;;;;;5033869;28;20022;-70
2023/12/27 11:10:59;;;;;;;3.83;1.75;;;;;;;;;;5033872;28;20115;-70
2023/12/27 11:13:25;;;;;;;6.22;1.77;;;;;;;;;;5033496;28;20466;-70
2023/12/27 11:15:51;;;;;;;5.28;2.20;;;;;;;;;;5033428;28;20520;-70
2023/12/27 11:18:17;;;;;;;4.93;2.20;;;;;;;;;;5033583;28;20013;-70
2023/12/27 11:20:45;;;;;;;3.75;2.08;;;;;;;;;;5033462;28;20055;-70
2023/12/27 11:23:10;;;;;;;4.38;2.17;;;;;;;;;;5033671;28;20144;-70
2023/12/27 11:25:35;;;;;;;7.07;2.30;;;;;;;;;;5033390;28;20018;-70
2023/12/27 11:28:02;;;;;;;4.60;2.07;;;;;;;;;;5033401;28;20096;-70
2023/12/27 11:30:28;;;;;;;5.97;2.45;;;;;;;;;;5033631;28;20246;-70
2023/12/27 11:32:53;;;;;;;5.75;2.20;;;;;;;;;;5033413;28;20105;-70
2023/12/27 11:35:27;;;;;;;3.50;1.90;;;;;;;;;;5033747;28;20393;-70
2023/12/27 11:37:53;;;;;;;4.00;2.45;;;;;;;;;;5033270;28;20022;-70
2023/12/27 11:40:32;;;;;;;3.85;2.45;;;;;;;;;;5033573;28;20110;-70
2023/12/27 11:42:58;;;;;;;4.88;2.08;;;;;;;;;;5032954;28;20483;-70
2023/12/27 11:45:24;;;;;;;3.10;2.10;;;;;;;;;;5033181;28;20028;-70
2023/12/27 11:47:49;;;;;;;7.43;2.67;;;;;;;;;;5033371;28;20026;-70
2023/12/27 11:50:14;;;;;;;5.10;2.27;;;;;;;;;;5033120;28;20014;-70
2023/12/27 11:52:46;;;;;;;7.15;2.75;;;;;;;;;;5033336;28;20718;-70
2023/12/27 11:55:18;;;;;;;8.38;2.50;;;;;;;;;;5033266;28;20024;-70
2023/12/27 11:57:43;;;;;;;5.57;2.50;;;;;;;;;;5033369;28;20078;-70
2023/12/27 12:00:11;;;;;;;3.95;2.47;;;;;;;;;;5033008;28;20528;-70
2023/12/27 12:02:38;;;;;;;4.68;2.28;;;;;;;;;;5032969;28;20022;-70
2023/12/27 12:05:10;;;;;;;6.13;2.72;;;;;;;;;;5033017;28;20029;-70
2023/12/27 12:07:51;;;;;;;4.88;2.25;;;;;;;;;;5032953;28;20473;-70
2023/12/27 12:10:20;;;;;;;8.40;2.53;;;;;;;;;;5033224;28;20385;-70
2023/12/27 12:12:46;;;;;;;6.53;3.10;;;;;;;;;;5033247;28;20040;-70
2023/12/27 12:15:12;;;;;;;4.18;2.40;;;;;;;;;;5032748;28;20382;-70
2023/12/27 12:17:38;;;;;;;4.38;2.40;;;;;;;;;;5033197;28;20021;-70
2023/12/27 12:20:03;;;;;;;12.65;2.35;;;;;;;;;;5032899;28;20553;-70
2023/12/27 12:22:29;;;;;;;3.50;2.00;;;;;;;;;;5033124;28;20488;-70
2023/12/27 12:25:04;;;;;;;10.23;3.10;;;;;;;;;;5032878;28;20068;-70
2023/12/27 12:27:29;;;;;;;5.25;2.30;;;;;;;;;;5032743;28;20071;-70
2023/12/27 12:29:55;;;;;;;5.87;2.50;;;;;;;;;;5032861;28;20021;-70
2023/12/27 12:32:20;;;;;;;7.88;3.08;;;;;;;;;;5033011;28;20293;-70
2023/12/27 12:34:45;;;;;;;8.37;2.23;;;;;;;;;;5033053;28;20021;-70
2023/12/27 12:37:10;;;;;;;6.27;2.73;;;;;;;;;;5032743;28;20338;-70
2023/12/27 12:39:36;;;;;;;6.80;2.95;;;;;;;;;;5032656;28;20249;-70
2023/12/27 12:42:01;;;;;;;5.57;2.43;;;;;;;;;;5032716;28;20496;-70
2023/12/27 12:44:26;;;;;;;7.30;3.20;;;;;;;;;;5032930;28;20784;-70
2023/12/27 12:46:51;;;;;;;4.80;2.40;;;;;;;;;;5032614;28;20025;-70
2023/12/27 12:49:17;;;;;;;4.45;2.17;;;;;;;;;;5032705;28;20022;-70
2023/12/27 12:51:43;;;;;;;8.27;3.05;;;;;;;;;;5032859;28;20028;-70
2023/12/27 12:54:08;;;;;;;7.38;2.30;;;;;;;;;;5033806;28;20496;-70
2023/12/27 12:56:33;;;;;;;2.88;2.15;;;;;;;;;;5036113;28;20045;-70
2023/12/27 12:58:58;;;;;;;3.75;2.03;;;;;;;;;;5036324;28;20519;-70
2023/12/27 13:01:24;;;;;;;4.75;2.40;;;;;;;;;;5036081;28;20433;-70
2023/12/27 13:03:50;;;;;;;4.30;2.28;;;;;;;;;;5036235;28;20516;-70
2023/12/27 13:06:16;;;;;;;7.03;2.03;;;;;;;;;;5035849;28;20424;-70
2023/12/27 13:08:41;;;;;;;7.43;2.30;;;;;;;;;;5036143;28;20523;-70
2023/12/27 13:11:07;;;;;;;3.95;2.42;;;;;;;;;;5035838;28;20021;-70
2023/12/27 13:13:32;;;;;;;3.63;2.03;;;;;;;;;;5035720;28;20017;-70
2023/12/27 13:15:58;;;;;;;4.10;1.92;;;;;;;;;;5035681;28;20144;-70
2023/12/27 13:18:23;;;;;;;9.45;2.60;;;;;;;;;;5035985;28;20025;-70
2023/12/27 13:20:48;;;;;;;6.20;2.45;;;;;;;;;;5035754;28;20496;-70
2023/12/27 13:23:14;;;;;;;4.65;2.05;;;;;;;;;;5035634;28;20026;-70
2023/12/27 13:25:39;;;;;;;9.05;2.40;;;;;;;;;;5035455;28;20024;-70
2023/12/27 13:28:05;;;;;;;4.72;2.30;;;;;;;;;;5035735;28;20025;-70
2023/12/27 13:30:30;;;;;;;5.32;2.70;;;;;;;;;;5035446;28;20079;-70
2023/12/27 13:32:58;;;;;;;3.92;1.92;;;;;;;;;;5035397;28;20025;-70
2023/12/27 13:35:24;;;;;;;6.97;2.50;;;;;;;;;;5035713;28;20420;-70
2023/12/27 13:37:49;;;;;;;5.33;2.77;;;;;;;;;;5035321;28;20017;-70
2023/12/27 13:40:14;;;;;;;3.88;2.47;;;;;;;;;;5035560;28;20025;-71
2023/12/27 13:42:39;;;;;;;3.97;2.20;;;;;;;;;;5035274;28;20540;-70
2023/12/27 13:45:05;;;;;;;6.27;2.07;;;;;;;;;;5035191;28;20270;-70
2023/12/27 13:47:30;;;;;;;4.28;2.03;;;;;;;;;;5035038;28;20274;-70
2023/12/27 13:49:56;;;;;;;3.20;1.83;;;;;;;;;;5035152;28;20096;-70
2023/12/27 13:52:21;;;;;;;3.87;2.03;;;;;;;;;;5035102;28;20329;-70
2023/12/27 13:54:46;;;;;;;3.53;2.10;;;;;;;;;;5035001;28;20083;-70
2023/12/27 13:57:12;;;;;;;3.45;2.10;;;;;;;;;;5035206;28;20354;-70
2023/12/27 13:59:38;;;;;;;4.55;2.30;;;;;;;;;;5035203;28;20025;-70
2023/12/27 14:02:04;;;;;;;5.10;2.13;;;;;;;;;;5034943;28;20021;-70
2023/12/27 14:04:29;;;;;;;3.63;2.38;;;;;;;;;;5034590;28;20160;-70
2023/12/27 14:06:55;;;;;;;3.50;1.87;;;;;;;;;;5034929;28;20017;-70
2023/12/27 14:09:20;;;;;;;3.43;2.20;;;;;;;;;;5034792;28;20247;-70
2023/12/27 14:11:45;;;;;;;4.00;2.20;;;;;;;;;;5034707;28;20028;-70
2023/12/27 14:14:11;;;;;;;7.88;2.30;;;;;;;;;;5034439;28;20254;-70
2023/12/27 14:16:36;;;;;;;4.05;2.42;;;;;;;;;;5034552;28;20063;-70
2023/12/27 14:19:03;;;;;;;4.88;2.33;;;;;;;;;;5034571;28;20026;-70
2023/12/27 14:21:29;;;;;;;6.93;3.25;;;;;;;;;;5034427;28;20215;-70
2023/12/27 14:23:55;;;;;;;4.10;2.17;;;;;;;;;;5034727;28;20033;-70
2023/12/27 14:26:20;;;;;;;4.15;2.28;;;;;;;;;;5034254;28;20435;-69
2023/12/27 14:28:46;;;;;;;5.13;2.17;;;;;;;;;;5034444;28;20028;-70
2023/12/27 14:31:15;;;;;;;4.43;2.35;;;;;;;;;;5034299;28;20242;-71